createdAt,value
2023-03-10T00:00:21.675Z,15.78
2023-03-10T00:03:23.165Z,15.72
2023-03-10T00:06:26.556Z,15.75
2023-03-10T00:09:28.027Z,15.59
2023-03-10T00:12:29.598Z,15.54
2023-03-10T00:15:31.741Z,15.43
2023-03-10T00:18:33.651Z,15.27
2023-03-10T00:21:35.090Z,15.07
2023-03-10T00:24:36.548Z,15.22
2023-03-10T00:27:38.716Z,15.34
2023-03-10T00:30:40.240Z,15.45
2023-03-10T00:33:44.406Z,15.56
2023-03-10T00:36:45.903Z,15.65
2023-03-10T00:39:51.262Z,15.78
2023-03-10T00:42:52.793Z,15.71
2023-03-10T00:45:54.588Z,15.55
2023-03-10T00:48:56.612Z,15.39
2023-03-10T00:51:58.138Z,15.33
2023-03-10T00:54:59.760Z,15.21
2023-03-10T00:58:01.244Z,15.12
2023-03-10T01:01:04.825Z,14.66
2023-03-10T01:04:13.790Z,14.66
2023-03-10T01:07:15.457Z,14.52
2023-03-10T01:10:18.135Z,14.38
2023-03-10T01:13:20.121Z,14.36
2023-03-10T01:16:21.720Z,14.44
2023-03-10T01:19:23.181Z,14.33
2023-03-10T01:22:24.749Z,14.49
2023-03-10T01:25:27.067Z,14.47
2023-03-10T01:28:28.542Z,14.26
2023-03-10T01:31:31.181Z,14.31
2023-03-10T01:34:33.023Z,14.38
2023-03-10T01:37:34.601Z,14.46
2023-03-10T01:40:37.770Z,14.43
2023-03-10T01:43:44.215Z,14.47
2023-03-10T01:46:48.654Z,14.68
2023-03-10T01:50:05.046Z,14.67
2023-03-10T01:53:07.584Z,15.02
2023-03-10T01:56:09.232Z,14.91
2023-03-10T01:59:11.306Z,15.02
2023-03-10T02:02:13.357Z,14.94
2023-03-10T02:05:15.930Z,14.97
2023-03-10T02:08:18.385Z,14.92
2023-03-10T02:11:20.670Z,15.08
2023-03-10T02:14:23.533Z,15.05
2023-03-10T02:17:27.286Z,15.15
2023-03-10T02:20:50.079Z,15.35
2023-03-10T02:24:09.281Z,15.05
2023-03-10T02:27:44.067Z,15.28
2023-03-10T02:30:49.712Z,15.38
2023-03-10T02:33:51.829Z,15.33
2023-03-10T02:36:53.706Z,15.31
2023-03-10T02:39:55.396Z,15.51
2023-03-10T02:42:57.945Z,15.53
2023-03-10T02:46:02.782Z,15.63
2023-03-10T02:49:07.235Z,15.75
2023-03-10T02:52:40.572Z,15.73
2023-03-10T02:55:42.691Z,15.64
2023-03-10T02:58:44.399Z,15.73
2023-03-10T03:01:45.943Z,15.57
2023-03-10T03:04:47.879Z,15.69
2023-03-10T03:07:49.857Z,15.86
2023-03-10T03:10:53.116Z,15.84
2023-03-10T03:13:54.987Z,15.84
2023-03-10T03:16:57.618Z,15.79
2023-03-10T03:19:59.448Z,15.74
2023-03-10T03:23:01.573Z,15.75
2023-03-10T03:26:03.853Z,15.61
2023-03-10T03:29:06.011Z,15.66
2023-03-10T03:32:10.308Z,15.72
2023-03-10T03:35:16.740Z,15.73
2023-03-10T03:38:18.777Z,15.73
2023-03-10T03:41:21.276Z,15.72
2023-03-10T03:44:23.032Z,15.76
2023-03-10T03:47:25.583Z,15.86
2023-03-10T03:50:27.302Z,15.78
2023-03-10T03:53:33.625Z,15.78
2023-03-10T03:56:35.415Z,15.84
2023-03-10T03:59:37.382Z,15.81
2023-03-10T04:02:40.095Z,15.67
2023-03-10T04:05:44.821Z,15.92
2023-03-10T04:08:50.477Z,16.06
2023-03-10T04:11:53.135Z,16.07
2023-03-10T04:14:55.626Z,15.97
2023-03-10T04:17:57.912Z,16.09
2023-03-10T04:20:59.846Z,16.10
2023-03-10T04:24:02.929Z,15.99
2023-03-10T04:27:09.566Z,15.97
2023-03-10T04:30:13.846Z,16.02
2023-03-10T04:33:19.130Z,16.05
2023-03-10T04:36:22.635Z,15.83
2023-03-10T04:39:28.675Z,15.68
2023-03-10T04:42:30.224Z,15.58
2023-03-10T04:45:31.961Z,15.56
2023-03-10T04:48:34.172Z,15.53
2023-03-10T04:51:35.934Z,15.30
2023-03-10T04:54:37.625Z,15.31
2023-03-10T04:57:39.864Z,15.30
2023-03-10T05:00:56.505Z,15.33
2023-03-10T05:04:05.406Z,15.45
2023-03-10T05:07:08.271Z,15.55
2023-03-10T05:10:13.682Z,15.73
2023-03-10T05:13:15.931Z,15.81
2023-03-10T05:16:20.826Z,15.71
2023-03-10T05:19:23.925Z,15.63
2023-03-10T05:22:26.437Z,15.66
2023-03-10T05:25:28.458Z,15.73
2023-03-10T05:28:30.049Z,15.77
2023-03-10T05:31:32.081Z,15.67
2023-03-10T05:34:39.481Z,15.81
2023-03-10T05:37:43.446Z,15.90
2023-03-10T05:40:45.637Z,15.82
2023-03-10T05:43:47.833Z,15.70
2023-03-10T05:46:51.319Z,15.72
2023-03-10T05:49:54.472Z,15.71
2023-03-10T05:52:56.279Z,15.96
2023-03-10T05:55:58.729Z,15.81
2023-03-10T05:59:00.910Z,15.83
2023-03-10T06:02:05.660Z,15.95
2023-03-10T06:05:11.299Z,16.00
2023-03-10T06:08:13.048Z,16.03
2023-03-10T06:11:14.725Z,16.16
2023-03-10T06:14:16.274Z,16.00
2023-03-10T06:17:19.724Z,16.08
2023-03-10T06:20:21.390Z,16.13
2023-03-10T06:23:24.511Z,16.15
2023-03-10T06:26:26.054Z,16.11
2023-03-10T06:29:27.508Z,16.27
2023-03-10T06:32:29.069Z,16.17
2023-03-10T06:35:31.503Z,16.28
2023-03-10T06:38:33.057Z,16.20
2023-03-10T06:41:37.484Z,16.14
2023-03-10T06:44:42.363Z,15.76
2023-03-10T06:47:44.668Z,15.24
2023-03-10T06:50:49.813Z,14.96
2023-03-10T06:53:51.277Z,14.79
2023-03-10T06:56:52.956Z,14.69
2023-03-10T06:59:55.123Z,14.53
2023-03-10T07:02:56.689Z,14.55
2023-03-10T07:05:59.635Z,14.54
2023-03-10T07:09:01.216Z,14.57
2023-03-10T07:12:02.643Z,14.69
2023-03-10T07:15:04.582Z,14.69
2023-03-10T07:18:06.168Z,14.65
2023-03-10T07:21:13.276Z,14.70
2023-03-10T07:24:15.788Z,14.72
2023-03-10T07:27:17.603Z,14.94
2023-03-10T07:30:19.347Z,15.15
2023-03-10T07:33:21.016Z,14.94
2023-03-10T07:36:23.511Z,15.16
2023-03-10T07:39:25.196Z,15.15
2023-03-10T07:42:26.675Z,14.88
2023-03-10T07:45:30.747Z,14.74
2023-03-10T07:48:32.216Z,14.58
2023-03-10T07:51:34.130Z,14.79
2023-03-10T07:54:35.599Z,14.87
2023-03-10T07:57:37.042Z,14.92
2023-03-10T08:00:38.727Z,14.85
2023-03-10T08:03:40.825Z,14.73
2023-03-10T08:06:42.313Z,14.75
2023-03-10T08:09:49.756Z,14.75
2023-03-10T08:12:51.206Z,14.79
2023-03-10T08:15:52.880Z,15.35
2023-03-10T08:18:54.812Z,15.46
2023-03-10T08:22:02.073Z,15.32
2023-03-10T08:25:03.841Z,15.30
2023-03-10T08:28:05.295Z,15.26
2023-03-10T08:31:09.858Z,15.17
2023-03-10T08:34:11.479Z,15.14
2023-03-10T08:37:12.971Z,15.06
2023-03-10T08:40:16.149Z,15.03
2023-03-10T08:43:17.733Z,15.24
2023-03-10T08:46:20.824Z,15.23
2023-03-10T08:49:22.438Z,15.12
2023-03-10T08:52:24.573Z,15.07
2023-03-10T08:55:26.076Z,15.21
2023-03-10T08:58:27.657Z,15.26
2023-03-10T09:01:35.313Z,15.24
2023-03-10T09:04:36.841Z,15.34
2023-03-10T09:07:38.520Z,15.23
2023-03-10T09:10:41.125Z,15.20
2023-03-10T09:13:42.825Z,15.15
2023-03-10T09:16:45.052Z,15.12
2023-03-10T09:19:46.876Z,15.36
2023-03-10T09:22:48.463Z,15.63
2023-03-10T09:25:50.065Z,15.62
2023-03-10T09:28:51.524Z,15.32
2023-03-10T09:31:53.236Z,15.48
2023-03-10T09:34:55.019Z,15.47
2023-03-10T09:37:56.549Z,15.41
2023-03-10T09:41:37.082Z,14.89
2023-03-10T09:44:46.355Z,15.19
2023-03-10T09:47:53.159Z,15.46
2023-03-10T09:50:56.603Z,15.63
2023-03-10T09:54:16.858Z,15.27
2023-03-10T09:57:21.990Z,15.59
2023-03-10T10:00:44.804Z,15.76
2023-03-10T10:03:53.107Z,15.76
2023-03-10T10:06:57.332Z,15.43
2023-03-10T10:10:06.006Z,15.28
2023-03-10T10:13:15.870Z,15.10
2023-03-10T10:16:42.352Z,15.34
2023-03-10T10:19:47.813Z,14.94
2023-03-10T10:22:49.655Z,15.05
2023-03-10T10:25:51.551Z,14.80
2023-03-10T10:29:01.280Z,14.73
2023-03-10T10:32:02.813Z,14.89
2023-03-10T10:35:15.838Z,15.13
2023-03-10T10:38:24.779Z,14.88
2023-03-10T10:41:29.295Z,14.64
2023-03-10T10:44:40.758Z,14.79
2023-03-10T10:47:51.005Z,14.15
2023-03-10T10:50:54.416Z,14.43
2023-03-10T10:54:02.614Z,14.34
2023-03-10T10:57:06.152Z,14.43
2023-03-10T11:00:26.569Z,14.58
2023-03-10T11:03:35.378Z,14.55
2023-03-10T11:06:38.091Z,14.33
2023-03-10T11:09:39.605Z,14.03
2023-03-10T11:12:56.330Z,14.21
2023-03-10T11:16:07.990Z,14.56
2023-03-10T11:19:16.424Z,14.55
2023-03-10T11:22:43.374Z,14.75
2023-03-10T11:26:06.482Z,14.62
2023-03-10T11:29:33.660Z,14.57
2023-03-10T11:32:51.975Z,14.51
2023-03-10T11:36:00.947Z,14.52
2023-03-10T11:39:29.953Z,14.29
2023-03-10T11:42:34.272Z,14.25
2023-03-10T11:45:54.334Z,14.34
2023-03-10T11:49:10.431Z,14.28
2023-03-10T11:52:18.875Z,14.26
2023-03-10T11:55:21.935Z,14.39
2023-03-10T11:58:31.866Z,14.19
2023-03-10T12:01:40.854Z,13.72
2023-03-10T12:04:50.725Z,13.31
2023-03-10T12:07:55.467Z,13.53
2023-03-10T12:11:00.454Z,13.39
2023-03-10T12:14:02.762Z,13.33
2023-03-10T12:17:05.558Z,13.49
2023-03-10T12:20:13.186Z,13.68
2023-03-10T12:23:42.472Z,13.48
2023-03-10T12:26:45.096Z,13.81
2023-03-10T12:29:46.806Z,13.14
2023-03-10T12:32:48.471Z,12.54
2023-03-10T12:35:54.085Z,12.00
2023-03-10T12:39:00.153Z,11.89
2023-03-10T12:42:03.386Z,12.14
2023-03-10T12:45:21.416Z,12.42
2023-03-10T12:48:23.305Z,12.52
2023-03-10T12:51:28.499Z,12.73
2023-03-10T12:54:36.964Z,12.95
2023-03-10T12:58:04.632Z,12.95
2023-03-10T13:01:13.351Z,13.05
2023-03-10T13:04:21.160Z,13.20
2023-03-10T13:07:22.646Z,13.28
2023-03-10T13:10:27.286Z,13.32
2023-03-10T13:13:33.434Z,13.47
2023-03-10T13:16:36.519Z,13.47
2023-03-10T13:19:38.713Z,13.40
2023-03-10T13:22:43.409Z,13.63
2023-03-10T13:25:56.813Z,13.52
2023-03-10T13:29:00.913Z,13.40
2023-03-10T13:32:02.511Z,13.58
2023-03-10T13:35:23.897Z,13.44
2023-03-10T13:38:25.429Z,13.71
2023-03-10T13:41:27.209Z,13.52
2023-03-10T13:44:33.783Z,13.26
2023-03-10T13:47:42.976Z,13.33
2023-03-10T13:50:44.412Z,13.07
2023-03-10T13:53:48.368Z,13.18
2023-03-10T13:56:52.467Z,13.26
2023-03-10T13:59:56.861Z,13.32
2023-03-10T14:02:58.479Z,13.36
2023-03-10T14:05:59.916Z,13.39
2023-03-10T14:09:24.883Z,13.33
2023-03-10T14:12:48.342Z,12.73
2023-03-10T14:15:54.179Z,13.10
2023-03-10T14:18:55.771Z,13.07
2023-03-10T14:22:01.926Z,12.98
2023-03-10T14:25:11.458Z,13.04
2023-03-10T14:31:25.056Z,12.92
2023-03-10T14:34:26.596Z,12.96
2023-03-10T14:37:28.099Z,13.01
2023-03-10T14:40:29.726Z,12.89
2023-03-10T14:43:31.442Z,12.80
2023-03-10T14:46:35.051Z,12.83
2023-03-10T14:49:36.847Z,12.79
2023-03-10T14:52:38.527Z,12.90
2023-03-10T14:55:41.684Z,12.65
2023-03-10T14:58:49.284Z,12.30
2023-03-10T15:01:50.929Z,12.68
2023-03-10T15:04:52.479Z,12.71
2023-03-10T15:07:54.082Z,12.46
2023-03-10T15:10:56.026Z,12.70
2023-03-10T15:13:58.011Z,12.85
2023-03-10T15:16:59.526Z,12.76
2023-03-10T15:20:01.021Z,12.68
2023-03-10T15:23:02.442Z,12.50
2023-03-10T15:26:09.448Z,12.58
2023-03-10T15:29:15.827Z,12.94
2023-03-10T15:32:46.100Z,13.40
2023-03-10T15:35:47.640Z,13.09
2023-03-10T15:38:49.106Z,13.03
2023-03-10T15:41:50.599Z,12.81
2023-03-10T15:44:52.161Z,12.60
2023-03-10T15:47:53.696Z,12.25
2023-03-10T15:50:55.179Z,11.73
2023-03-10T15:53:58.809Z,12.01
2023-03-10T15:57:00.365Z,11.26
2023-03-10T16:00:01.890Z,11.81
2023-03-10T16:03:03.459Z,12.10
2023-03-10T16:06:05.659Z,12.05
2023-03-10T16:09:09.021Z,12.09
2023-03-10T16:12:10.637Z,12.11
2023-03-10T16:15:23.702Z,12.21
2023-03-10T16:18:25.213Z,12.26
2023-03-10T16:21:27.830Z,12.08
2023-03-10T16:24:29.314Z,12.28
2023-03-10T16:27:30.891Z,12.32
2023-03-10T16:30:34.884Z,12.54
2023-03-10T16:33:36.557Z,12.77
2023-03-10T16:36:38.042Z,12.82
2023-03-10T16:39:39.504Z,13.13
2023-03-10T16:42:45.270Z,13.31
2023-03-10T16:45:48.870Z,13.27
2023-03-10T16:48:50.432Z,13.36
2023-03-10T16:51:51.973Z,13.35
2023-03-10T16:54:57.301Z,13.20
2023-03-10T16:57:58.889Z,13.18
2023-03-10T17:01:01.007Z,13.10
2023-03-10T17:04:02.570Z,13.30
2023-03-10T17:07:04.059Z,13.28
2023-03-10T17:10:06.072Z,13.25
2023-03-10T17:13:07.541Z,13.40
2023-03-10T17:16:12.589Z,13.53
2023-03-10T17:19:19.463Z,13.52
2023-03-10T17:22:21.070Z,13.37
2023-03-10T17:25:22.686Z,12.83
2023-03-10T17:28:24.435Z,12.62
2023-03-10T17:31:27.518Z,12.17
2023-03-10T17:34:29.344Z,11.80
2023-03-10T17:37:30.842Z,11.81
2023-03-10T17:40:33.743Z,12.02
2023-03-10T17:43:35.225Z,11.96
2023-03-10T17:46:36.968Z,12.03
2023-03-10T17:49:38.623Z,12.03
2023-03-10T17:52:40.108Z,12.26
2023-03-10T17:55:41.704Z,12.02
2023-03-10T17:58:43.608Z,11.93
2023-03-10T18:01:45.869Z,12.02
2023-03-10T18:04:48.574Z,12.06
2023-03-10T18:07:53.533Z,12.41
2023-03-10T18:11:03.685Z,12.36
2023-03-10T18:14:05.991Z,12.41
2023-03-10T18:17:07.481Z,12.52
2023-03-10T18:20:13.741Z,12.93
2023-03-10T18:23:17.327Z,12.92
2023-03-10T18:26:30.274Z,13.03
2023-03-10T18:29:31.741Z,12.96
2023-03-10T18:32:34.159Z,12.83
2023-03-10T18:35:39.691Z,12.36
2023-03-10T18:38:41.298Z,11.78
2023-03-10T18:41:42.841Z,12.08
2023-03-10T18:44:46.434Z,11.99
2023-03-10T18:47:48.123Z,11.84
2023-03-10T18:50:49.646Z,11.78
2023-03-10T18:53:51.663Z,10.46
2023-03-10T18:56:53.225Z,10.14
2023-03-10T18:59:54.687Z,9.73
2023-03-10T19:02:56.269Z,10.07
2023-03-10T19:05:58.200Z,10.15
2023-03-10T19:09:01.319Z,10.03
2023-03-10T19:12:02.838Z,10.23
2023-03-10T19:15:08.807Z,10.23
2023-03-10T19:18:10.440Z,9.91
2023-03-10T19:21:13.024Z,9.88
2023-03-10T19:24:14.512Z,10.35
2023-03-10T19:27:16.052Z,10.77
2023-03-10T19:30:22.352Z,11.01
2023-03-10T19:33:23.925Z,11.01
2023-03-10T19:36:26.567Z,11.05
2023-03-10T19:39:28.066Z,11.23
2023-03-10T19:42:29.545Z,11.32
2023-03-10T19:45:31.096Z,11.50
2023-03-10T19:48:32.824Z,11.67
2023-03-10T19:51:34.452Z,11.80
2023-03-10T19:54:36.125Z,11.88
2023-03-10T19:57:37.644Z,11.75
2023-03-10T20:00:39.158Z,11.63
2023-03-10T20:03:40.863Z,11.74
2023-03-10T20:06:42.381Z,11.82
2023-03-10T20:09:43.922Z,12.06
2023-03-10T20:12:47.005Z,11.91
2023-03-10T20:15:48.482Z,12.02
2023-03-10T20:18:50.235Z,11.85
2023-03-10T20:21:52.168Z,12.07
2023-03-10T20:24:53.715Z,12.13
2023-03-10T20:27:55.214Z,11.81
2023-03-10T20:30:56.690Z,12.04
2023-03-10T20:33:58.234Z,12.22
2023-03-10T20:36:59.686Z,12.25
2023-03-10T20:40:02.802Z,12.28
2023-03-10T20:43:05.320Z,12.28
2023-03-10T20:46:07.762Z,12.35
2023-03-10T20:49:10.043Z,12.24
2023-03-10T20:52:11.977Z,12.25
2023-03-10T20:55:22.961Z,12.35
2023-03-10T20:58:24.509Z,12.27
2023-03-10T21:01:27.208Z,12.35
2023-03-10T21:04:28.879Z,12.73
2023-03-10T21:07:30.466Z,12.70
2023-03-10T21:10:32.155Z,12.51
2023-03-10T21:13:33.598Z,12.23
2023-03-10T21:16:41.408Z,12.36
2023-03-10T21:19:42.931Z,12.37
2023-03-10T21:22:44.576Z,12.13
2023-03-10T21:25:46.125Z,12.12
2023-03-10T21:28:48.176Z,12.34
2023-03-10T21:31:49.587Z,12.33
2023-03-10T21:34:51.100Z,12.36
2023-03-10T21:37:52.671Z,12.05
2023-03-10T21:40:54.673Z,12.35
2023-03-10T21:43:58.477Z,12.20
2023-03-10T21:47:00.221Z,12.36
2023-03-10T21:50:02.046Z,12.56
2023-03-10T21:53:04.898Z,12.61
2023-03-10T21:56:07.291Z,12.66
2023-03-10T21:59:08.791Z,12.64
2023-03-10T22:02:25.260Z,12.51
2023-03-10T22:05:26.782Z,11.96
2023-03-10T22:08:28.240Z,11.97
2023-03-10T22:11:29.833Z,11.92
2023-03-10T22:14:31.402Z,12.06
2023-03-10T22:17:33.538Z,12.03
2023-03-10T22:20:35.213Z,11.83
2023-03-10T22:23:36.722Z,11.73
2023-03-10T22:26:38.219Z,11.74
2023-03-10T22:29:39.836Z,11.61
2023-03-10T22:32:41.795Z,11.45
2023-03-10T22:35:45.165Z,11.43
2023-03-10T22:38:46.637Z,11.48
2023-03-10T22:41:48.147Z,11.48
2023-03-10T22:44:49.612Z,11.60
2023-03-10T22:47:54.051Z,11.57
2023-03-10T22:50:55.530Z,11.72
2023-03-10T22:53:57.009Z,11.80
2023-03-10T22:56:58.641Z,11.83
2023-03-10T23:00:00.098Z,11.85
2023-03-10T23:03:02.328Z,11.82
2023-03-10T23:06:05.905Z,11.76
2023-03-10T23:09:10.643Z,11.64
2023-03-10T23:12:12.218Z,11.62
2023-03-10T23:15:24.861Z,11.73
2023-03-10T23:18:26.919Z,11.82
2023-03-10T23:21:28.467Z,11.65
2023-03-10T23:24:29.922Z,11.65
2023-03-10T23:27:31.381Z,11.69
2023-03-10T23:30:34.693Z,11.79
2023-03-10T23:33:36.203Z,11.70
2023-03-10T23:36:37.698Z,11.66
2023-03-10T23:39:39.205Z,11.60
2023-03-10T23:42:42.545Z,11.76
2023-03-10T23:45:44.668Z,11.82
2023-03-10T23:48:46.181Z,11.69
2023-03-10T23:51:48.901Z,11.67
2023-03-10T23:54:50.345Z,11.66
2023-03-10T23:57:51.811Z,11.63
